createdAt,value
2022-10-19T00:01:12.064Z,3.80
2022-10-19T00:03:39.242Z,4.20
2022-10-19T00:06:25.865Z,4.18
2022-10-19T00:08:58.327Z,4.00
2022-10-19T00:11:36.207Z,3.70
2022-10-19T00:14:03.539Z,4.00
2022-10-19T00:16:33.675Z,3.88
2022-10-19T00:19:02.306Z,4.00
2022-10-19T00:21:32.205Z,4.20
2022-10-19T00:23:58.743Z,4.10
2022-10-19T00:26:26.186Z,4.28
2022-10-19T00:28:56.610Z,3.88
2022-10-19T00:31:23.650Z,3.85
2022-10-19T00:33:50.144Z,4.47
2022-10-19T00:36:34.296Z,4.28
2022-10-19T00:39:02.450Z,4.10
2022-10-19T00:41:32.256Z,4.15
2022-10-19T00:44:12.505Z,4.00
2022-10-19T00:46:44.365Z,4.20
2022-10-19T00:49:21.890Z,3.75
2022-10-19T00:51:53.104Z,3.95
2022-10-19T00:54:20.042Z,4.00
2022-10-19T00:56:48.928Z,4.10
2022-10-19T00:59:18.730Z,4.25
2022-10-19T01:01:45.929Z,4.10
2022-10-19T01:04:13.356Z,4.38
2022-10-19T01:06:41.498Z,4.03
2022-10-19T01:09:09.177Z,4.03
2022-10-19T01:11:57.112Z,4.82
2022-10-19T01:14:55.330Z,4.30
2022-10-19T01:17:50.006Z,4.10
2022-10-19T01:20:28.034Z,3.80
2022-10-19T01:23:10.300Z,3.90
2022-10-19T01:26:03.116Z,3.97
2022-10-19T01:28:54.071Z,3.88
2022-10-19T01:31:45.438Z,4.03
2022-10-19T01:34:19.237Z,4.28
2022-10-19T01:36:57.485Z,4.35
2022-10-19T01:39:51.771Z,4.22
2022-10-19T01:42:24.181Z,4.10
2022-10-19T01:45:14.838Z,4.55
2022-10-19T01:48:15.491Z,4.45
2022-10-19T01:50:55.694Z,4.05
2022-10-19T01:53:24.372Z,4.13
2022-10-19T01:55:55.190Z,4.13
2022-10-19T01:58:27.269Z,4.25
2022-10-19T02:00:55.797Z,3.85
2022-10-19T02:03:24.245Z,3.95
2022-10-19T02:05:54.111Z,3.97
2022-10-19T02:08:26.585Z,4.00
2022-10-19T02:10:54.245Z,4.32
2022-10-19T02:13:21.634Z,4.30
2022-10-19T02:15:51.026Z,4.45
2022-10-19T02:18:22.669Z,4.50
2022-10-19T02:20:49.267Z,4.43
2022-10-19T02:23:19.028Z,4.45
2022-10-19T02:25:46.790Z,4.00
2022-10-19T02:28:13.480Z,4.32
2022-10-19T02:30:39.988Z,4.43
2022-10-19T02:33:07.922Z,4.10
2022-10-19T02:35:34.903Z,4.00
2022-10-19T02:38:02.570Z,4.03
2022-10-19T02:40:35.411Z,4.07
2022-10-19T02:43:07.565Z,4.35
2022-10-19T02:45:38.951Z,4.45
2022-10-19T02:48:17.478Z,4.13
2022-10-19T02:50:45.356Z,4.55
2022-10-19T02:53:11.787Z,4.85
2022-10-19T02:55:38.499Z,4.57
2022-10-19T02:58:04.997Z,4.95
2022-10-19T03:00:32.621Z,4.78
2022-10-19T03:02:59.267Z,4.65
2022-10-19T03:05:25.716Z,5.05
2022-10-19T03:07:52.358Z,4.82
2022-10-19T03:10:22.969Z,4.22
2022-10-19T03:12:49.386Z,4.70
2022-10-19T03:15:23.803Z,4.55
2022-10-19T03:17:53.002Z,5.40
2022-10-19T03:20:20.581Z,5.15
2022-10-19T03:22:47.011Z,5.10
2022-10-19T03:25:14.746Z,5.13
2022-10-19T03:27:41.141Z,5.40
2022-10-19T03:30:09.116Z,5.40
2022-10-19T03:32:35.520Z,5.13
2022-10-19T03:35:02.206Z,5.20
2022-10-19T03:37:28.585Z,5.18
2022-10-19T03:39:55.190Z,5.28
2022-10-19T03:42:21.622Z,4.97
2022-10-19T03:44:48.056Z,5.35
2022-10-19T03:47:14.456Z,5.10
2022-10-19T03:49:40.910Z,5.30
2022-10-19T03:52:10.003Z,5.18
2022-10-19T03:54:36.510Z,4.80
2022-10-19T03:57:03.021Z,5.40
2022-10-19T03:59:29.515Z,4.93
2022-10-19T04:01:55.966Z,5.15
2022-10-19T04:04:22.457Z,4.97
2022-10-19T04:06:50.086Z,4.65
2022-10-19T04:09:22.280Z,4.60
2022-10-19T04:11:48.929Z,5.07
2022-10-19T04:14:26.832Z,4.85
2022-10-19T04:17:01.506Z,5.13
2022-10-19T04:19:29.282Z,4.80
2022-10-19T04:21:55.711Z,4.93
2022-10-19T04:24:22.797Z,4.20
2022-10-19T04:26:55.030Z,4.78
2022-10-19T04:29:26.482Z,4.78
2022-10-19T04:31:56.120Z,5.22
2022-10-19T04:34:22.650Z,4.97
2022-10-19T04:36:49.151Z,4.70
2022-10-19T04:39:15.691Z,4.80
2022-10-19T04:41:42.245Z,4.75
2022-10-19T04:44:09.837Z,4.63
2022-10-19T04:46:37.395Z,4.68
2022-10-19T04:49:05.647Z,4.60
2022-10-19T04:51:32.207Z,4.40
2022-10-19T04:54:04.991Z,4.45
2022-10-19T04:56:32.419Z,4.80
2022-10-19T04:59:00.291Z,4.18
2022-10-19T05:01:29.336Z,4.65
2022-10-19T05:03:58.145Z,4.53
2022-10-19T05:06:25.202Z,4.50
2022-10-19T05:08:52.027Z,4.50
2022-10-19T05:11:19.187Z,4.05
2022-10-19T05:13:46.479Z,4.35
2022-10-19T05:16:15.772Z,4.28
2022-10-19T05:18:42.507Z,4.40
2022-10-19T05:21:13.982Z,4.38
2022-10-19T05:23:41.957Z,3.88
2022-10-19T05:26:21.713Z,4.55
2022-10-19T05:29:01.845Z,4.13
2022-10-19T05:31:30.722Z,4.35
2022-10-19T05:33:57.323Z,4.78
2022-10-19T05:36:28.868Z,4.38
2022-10-19T05:38:57.687Z,4.40
2022-10-19T05:41:28.742Z,3.70
2022-10-19T05:43:57.652Z,3.72
2022-10-19T05:46:25.918Z,3.90
2022-10-19T05:48:52.632Z,3.90
2022-10-19T05:51:21.136Z,3.95
2022-10-19T05:53:47.661Z,3.95
2022-10-19T05:56:17.225Z,3.90
2022-10-19T05:58:44.396Z,3.77
2022-10-19T06:01:14.972Z,3.78
2022-10-19T06:03:41.635Z,4.10
2022-10-19T06:06:09.166Z,3.67
2022-10-19T06:08:36.370Z,3.65
2022-10-19T06:11:14.200Z,3.80
2022-10-19T06:13:41.902Z,3.72
2022-10-19T06:16:10.519Z,3.78
2022-10-19T06:18:38.388Z,3.78
2022-10-19T06:21:08.608Z,3.72
2022-10-19T06:23:37.308Z,4.07
2022-10-19T06:26:09.648Z,3.53
2022-10-19T06:28:43.697Z,3.85
2022-10-19T06:31:10.959Z,3.58
2022-10-19T06:33:39.608Z,3.92
2022-10-19T06:36:10.642Z,3.95
2022-10-19T06:38:48.994Z,3.55
2022-10-19T06:41:16.050Z,3.60
2022-10-19T06:43:43.599Z,3.90
2022-10-19T06:46:12.755Z,3.80
2022-10-19T06:48:41.735Z,3.65
2022-10-19T06:51:14.811Z,4.15
2022-10-19T06:53:42.358Z,3.95
2022-10-19T06:56:11.582Z,4.25
2022-10-19T06:58:40.611Z,3.70
2022-10-19T07:01:17.237Z,3.50
2022-10-19T07:03:44.801Z,3.58
2022-10-19T07:06:12.877Z,3.63
2022-10-19T07:08:40.947Z,3.67
2022-10-19T07:11:17.449Z,3.50
2022-10-19T07:13:44.479Z,3.45
2022-10-19T07:16:19.814Z,3.63
2022-10-19T07:18:48.657Z,4.00
2022-10-19T07:21:16.486Z,3.40
2022-10-19T07:23:44.521Z,3.60
2022-10-19T07:26:23.828Z,3.10
2022-10-19T07:28:56.028Z,3.42
2022-10-19T07:31:24.380Z,3.58
2022-10-19T07:33:59.286Z,3.47
2022-10-19T07:36:27.354Z,3.47
2022-10-19T07:38:54.264Z,3.30
2022-10-19T07:41:22.913Z,3.22
2022-10-19T07:44:03.763Z,3.72
2022-10-19T07:46:39.840Z,3.60
2022-10-19T07:49:10.067Z,3.20
2022-10-19T07:51:37.943Z,3.08
2022-10-19T07:54:06.189Z,3.72
2022-10-19T07:56:33.194Z,3.17
2022-10-19T07:59:01.247Z,3.22
2022-10-19T08:01:30.876Z,3.30
2022-10-19T08:04:55.415Z,3.38
2022-10-19T08:06:45.510Z,3.40
2022-10-19T08:09:27.747Z,2.97
2022-10-19T08:11:58.490Z,3.17
2022-10-19T08:14:26.060Z,3.10
2022-10-19T08:16:53.543Z,3.40
2022-10-19T08:19:20.152Z,3.40
2022-10-19T08:21:47.443Z,3.53
2022-10-19T08:24:16.276Z,3.22
2022-10-19T08:26:43.068Z,3.40
2022-10-19T08:29:29.131Z,3.20
2022-10-19T08:32:03.007Z,3.38
2022-10-19T08:34:29.447Z,3.60
2022-10-19T08:37:20.169Z,3.10
2022-10-19T08:39:54.124Z,3.30
2022-10-19T08:42:27.445Z,3.17
2022-10-19T08:45:06.189Z,3.25
2022-10-19T08:47:32.556Z,3.10
2022-10-19T08:49:59.845Z,3.50
2022-10-19T08:52:34.785Z,3.40
2022-10-19T08:55:13.088Z,3.25
2022-10-19T08:57:54.076Z,3.55
2022-10-19T09:00:20.495Z,3.70
2022-10-19T09:03:05.040Z,3.78
2022-10-19T09:05:37.479Z,3.42
2022-10-19T09:08:04.271Z,3.47
2022-10-19T09:10:40.656Z,3.15
2022-10-19T09:13:20.341Z,3.30
2022-10-19T09:15:52.233Z,3.20
2022-10-19T09:18:25.090Z,3.50
2022-10-19T09:20:59.448Z,3.28
2022-10-19T09:23:31.418Z,3.40
2022-10-19T09:25:58.220Z,3.67
2022-10-19T09:28:39.682Z,3.45
2022-10-19T09:31:14.908Z,3.38
2022-10-19T09:33:43.525Z,3.55
2022-10-19T09:36:15.030Z,3.55
2022-10-19T09:38:51.751Z,3.60
2022-10-19T09:41:20.642Z,3.65
2022-10-19T09:43:53.505Z,3.83
2022-10-19T09:51:46.202Z,3.35
2022-10-19T09:54:51.077Z,3.20
2022-10-19T09:57:21.315Z,3.60
2022-10-19T09:59:53.083Z,3.50
2022-10-19T10:02:22.612Z,4.00
2022-10-19T10:05:02.724Z,3.63
2022-10-19T10:07:37.585Z,3.20
2022-10-19T10:10:18.999Z,3.28
2022-10-19T10:12:46.579Z,3.60
2022-10-19T10:15:29.278Z,3.33
2022-10-19T10:17:56.555Z,3.47
2022-10-19T10:20:29.494Z,3.30
2022-10-19T10:23:03.201Z,3.40
2022-10-19T10:25:32.600Z,3.50
2022-10-19T10:28:04.848Z,6.10
2022-10-19T10:30:44.489Z,4.38
2022-10-19T10:33:27.069Z,3.95
2022-10-19T10:36:08.532Z,3.67
2022-10-19T10:38:48.924Z,3.40
2022-10-19T10:41:23.537Z,3.63
2022-10-19T10:44:00.770Z,3.42
2022-10-19T10:46:37.208Z,3.40
2022-10-19T10:49:21.616Z,3.40
2022-10-19T10:51:54.947Z,3.40
2022-10-19T10:54:25.993Z,3.38
2022-10-19T10:57:13.849Z,3.78
2022-10-19T11:00:12.274Z,3.50
2022-10-19T11:02:51.502Z,3.72
2022-10-19T11:05:31.151Z,3.17
2022-10-19T11:08:19.005Z,3.30
2022-10-19T11:10:53.032Z,3.38
2022-10-19T11:13:30.364Z,3.30
2022-10-19T11:15:59.815Z,3.42
2022-10-19T11:18:37.912Z,3.20
2022-10-19T11:21:10.759Z,3.53
2022-10-19T11:24:09.454Z,3.20
2022-10-19T11:27:26.830Z,3.38
2022-10-19T11:30:14.322Z,3.20
2022-10-19T11:32:52.867Z,3.22
2022-10-19T11:35:39.707Z,3.30
2022-10-19T11:38:30.366Z,3.60
2022-10-19T11:41:16.842Z,3.30
2022-10-19T11:43:58.622Z,3.38
2022-10-19T11:46:48.105Z,3.38
2022-10-19T11:49:38.930Z,3.42
2022-10-19T11:52:47.007Z,3.10
2022-10-19T11:55:27.307Z,3.15
2022-10-19T11:57:54.840Z,3.13
2022-10-19T12:00:39.807Z,3.40
2022-10-19T12:03:22.731Z,3.30
2022-10-19T12:06:13.693Z,3.00
2022-10-19T12:09:04.519Z,3.25
2022-10-19T12:12:01.382Z,3.50
2022-10-19T12:14:34.172Z,3.30
2022-10-19T12:17:07.931Z,3.40
2022-10-19T12:19:44.123Z,3.53
2022-10-19T12:22:19.021Z,3.42
2022-10-19T12:24:45.450Z,3.50
2022-10-19T12:27:18.395Z,3.53
2022-10-19T12:29:48.545Z,3.40
2022-10-19T12:32:19.356Z,3.33
2022-10-19T12:34:55.146Z,3.80
2022-10-19T12:37:47.907Z,3.47
2022-10-19T12:40:27.683Z,3.47
2022-10-19T12:43:04.730Z,3.38
2022-10-19T12:45:44.453Z,3.35
2022-10-19T12:48:16.589Z,2.95
2022-10-19T12:50:48.995Z,3.20
2022-10-19T12:53:31.101Z,3.08
2022-10-19T12:56:20.900Z,3.08
2022-10-19T12:58:53.134Z,3.00
2022-10-19T13:01:21.294Z,3.20
2022-10-19T13:03:51.521Z,3.10
2022-10-19T13:06:29.243Z,3.30
2022-10-19T13:09:05.869Z,3.33
2022-10-19T13:14:27.236Z,3.35
2022-10-19T13:16:58.902Z,3.20
2022-10-19T13:19:25.815Z,3.30
2022-10-19T13:21:53.291Z,3.13
2022-10-19T13:24:35.473Z,3.25
2022-10-19T13:27:03.109Z,3.20
2022-10-19T13:29:39.107Z,3.20
2022-10-19T13:32:32.365Z,3.20
2022-10-19T13:35:38.881Z,3.40
2022-10-19T13:38:24.387Z,3.10
2022-10-19T13:40:50.953Z,3.22
2022-10-19T13:43:24.174Z,3.22
2022-10-19T13:46:12.530Z,3.17
2022-10-19T13:49:16.627Z,3.10
2022-10-19T13:52:03.518Z,3.10
2022-10-19T13:54:45.108Z,2.92
2022-10-19T13:57:20.754Z,3.13
2022-10-19T14:00:01.922Z,3.15
2022-10-19T14:02:31.425Z,3.30
2022-10-19T14:05:07.104Z,3.10
2022-10-19T14:07:46.862Z,2.90
2022-10-19T14:10:17.382Z,3.10
2022-10-19T14:12:45.725Z,4.00
2022-10-19T14:15:34.040Z,3.75
2022-10-19T14:18:03.756Z,3.95
2022-10-19T14:20:37.188Z,3.83
2022-10-19T14:23:25.359Z,3.40
2022-10-19T14:25:58.888Z,4.00
2022-10-19T14:28:26.770Z,3.75
2022-10-19T14:30:57.292Z,3.85
2022-10-19T14:33:25.543Z,3.60
2022-10-19T14:35:53.359Z,2.80
2022-10-19T14:38:39.850Z,3.53
2022-10-19T14:41:20.608Z,3.17
2022-10-19T14:46:16.082Z,3.42
2022-10-19T14:48:50.163Z,3.40
2022-10-19T14:51:31.871Z,3.40
2022-10-19T14:54:23.413Z,3.50
2022-10-19T14:56:54.561Z,3.40
2022-10-19T14:59:34.715Z,3.40
2022-10-19T15:02:16.767Z,3.60
2022-10-19T15:04:43.726Z,3.53
2022-10-19T15:07:29.614Z,3.50
2022-10-19T15:09:59.516Z,3.50
2022-10-19T15:12:30.044Z,3.60
2022-10-19T15:14:57.477Z,3.40
2022-10-19T15:17:29.873Z,3.50
2022-10-19T15:19:59.994Z,3.63
2022-10-19T15:22:32.708Z,3.45
2022-10-19T15:25:01.629Z,3.70
2022-10-19T15:27:43.548Z,3.40
2022-10-19T15:30:18.988Z,3.30
2022-10-19T15:32:48.060Z,3.80
2022-10-19T15:35:38.785Z,3.58
2022-10-19T15:38:14.655Z,4.15
2022-10-19T15:40:43.465Z,4.22
2022-10-19T15:43:34.903Z,2.97
2022-10-19T15:46:08.355Z,3.10
2022-10-19T15:48:41.294Z,3.10
2022-10-19T15:51:33.055Z,3.30
2022-10-19T15:54:01.794Z,3.05
2022-10-19T15:56:30.979Z,3.00
2022-10-19T15:58:59.545Z,3.05
2022-10-19T16:01:33.627Z,3.22
2022-10-19T16:04:00.270Z,3.40
2022-10-19T16:06:30.365Z,3.25
2022-10-19T16:08:58.657Z,3.05
2022-10-19T16:11:26.209Z,3.42
2022-10-19T16:13:53.042Z,3.05
2022-10-19T16:16:26.121Z,3.47
2022-10-19T16:18:53.870Z,3.50
2022-10-19T16:21:23.462Z,3.50
2022-10-19T16:23:49.884Z,3.10
2022-10-19T16:26:19.705Z,3.10
2022-10-19T16:28:48.629Z,3.40
2022-10-19T16:31:15.638Z,3.45
2022-10-19T16:33:42.093Z,3.83
2022-10-19T16:36:09.556Z,3.17
2022-10-19T16:38:36.915Z,3.58
2022-10-19T16:41:06.120Z,3.60
2022-10-19T16:43:32.669Z,3.97
2022-10-19T16:45:59.451Z,3.60
2022-10-19T16:48:26.506Z,3.40
2022-10-19T16:51:24.538Z,4.28
2022-10-19T16:53:53.416Z,4.25
2022-10-19T16:56:20.573Z,3.95
2022-10-19T16:58:47.241Z,3.90
2022-10-19T17:01:19.572Z,4.32
2022-10-19T17:03:47.740Z,4.50
2022-10-19T17:06:15.458Z,3.83
2022-10-19T17:09:23.332Z,4.40
2022-10-19T17:11:34.723Z,3.75
2022-10-19T17:14:03.899Z,3.63
2022-10-19T17:16:32.513Z,3.80
2022-10-19T17:19:00.801Z,3.63
2022-10-19T17:21:29.926Z,4.00
2022-10-19T17:23:59.405Z,4.30
2022-10-19T17:26:27.568Z,4.53
2022-10-19T17:28:54.971Z,4.78
2022-10-19T17:31:21.697Z,4.22
2022-10-19T17:33:49.752Z,4.30
2022-10-19T17:36:20.966Z,4.40
2022-10-19T17:38:48.779Z,5.30
2022-10-19T17:41:18.141Z,14.95
2022-10-19T17:43:46.838Z,30.75
2022-10-19T17:46:16.619Z,12.07
2022-10-19T17:48:44.275Z,7.32
2022-10-19T17:51:13.506Z,7.32
2022-10-19T17:53:39.986Z,7.72
2022-10-19T17:56:07.305Z,6.68
2022-10-19T17:58:39.032Z,5.30
2022-10-19T18:01:08.463Z,4.70
2022-10-19T18:03:36.668Z,4.35
2022-10-19T18:06:10.701Z,5.00
2022-10-19T18:08:42.485Z,4.68
2022-10-19T18:11:18.563Z,5.20
2022-10-19T18:13:47.191Z,5.47
2022-10-19T18:16:23.457Z,5.45
2022-10-19T18:18:58.310Z,5.05
2022-10-19T18:21:29.357Z,5.05
2022-10-19T18:24:00.890Z,5.40
2022-10-19T18:26:35.549Z,5.82
2022-10-19T18:29:14.177Z,4.93
2022-10-19T18:31:50.445Z,4.68
2022-10-19T18:34:19.631Z,4.53
2022-10-19T18:36:46.426Z,4.90
2022-10-19T18:39:14.410Z,4.63
2022-10-19T18:41:42.363Z,4.72
2022-10-19T18:44:12.544Z,4.40
2022-10-19T18:46:39.755Z,4.50
2022-10-19T18:49:09.120Z,4.78
2022-10-19T18:51:36.851Z,4.80
2022-10-19T18:54:04.652Z,4.82
2022-10-19T18:56:37.340Z,5.00
2022-10-19T18:59:05.147Z,4.70
2022-10-19T19:01:31.829Z,4.80
2022-10-19T19:04:04.596Z,4.90
2022-10-19T19:06:34.910Z,5.00
2022-10-19T19:09:03.580Z,4.97
2022-10-19T19:11:36.734Z,4.50
2022-10-19T19:14:18.420Z,5.30
2022-10-19T19:16:49.600Z,5.18
2022-10-19T19:19:20.082Z,5.22
2022-10-19T19:24:18.818Z,4.80
2022-10-19T19:26:49.361Z,4.85
2022-10-19T19:29:16.889Z,5.00
2022-10-19T19:31:43.680Z,4.70
2022-10-19T19:34:12.274Z,4.97
2022-10-19T19:36:46.662Z,4.90
2022-10-19T19:39:22.471Z,4.85
2022-10-19T19:41:50.178Z,4.68
2022-10-19T19:44:17.724Z,4.72
2022-10-19T19:46:44.412Z,4.53
2022-10-19T19:49:23.499Z,4.47
2022-10-19T19:51:51.348Z,4.65
2022-10-19T19:54:19.008Z,4.45
2022-10-19T19:56:45.884Z,4.70
2022-10-19T19:59:13.356Z,4.55
2022-10-19T20:01:40.396Z,4.53
2022-10-19T20:04:07.813Z,4.60
2022-10-19T20:06:37.260Z,4.30
2022-10-19T20:09:04.613Z,4.38
2022-10-19T20:11:31.034Z,4.57
2022-10-19T20:14:01.999Z,4.70
2022-10-19T20:16:33.332Z,4.75
2022-10-19T20:19:11.362Z,4.30
2022-10-19T20:21:39.200Z,4.18
2022-10-19T20:24:07.003Z,4.40
2022-10-19T20:26:34.183Z,4.63
2022-10-19T20:29:03.537Z,4.38
2022-10-19T20:31:32.254Z,5.00
2022-10-19T20:33:58.840Z,4.43
2022-10-19T20:36:26.402Z,4.53
2022-10-19T20:38:55.709Z,4.80
2022-10-19T20:41:23.942Z,5.18
2022-10-19T20:43:53.299Z,4.80
2022-10-19T20:46:23.237Z,4.85
2022-10-19T20:48:51.125Z,5.10
2022-10-19T20:51:19.099Z,4.90
2022-10-19T20:53:50.594Z,5.30
2022-10-19T20:56:21.549Z,5.20
2022-10-19T21:01:30.014Z,4.90
2022-10-19T21:04:01.816Z,4.70
2022-10-19T21:06:29.968Z,4.47
2022-10-19T21:08:56.851Z,4.47
2022-10-19T21:11:35.229Z,4.85
2022-10-19T21:14:05.125Z,5.05
2022-10-19T21:16:35.308Z,4.78
2022-10-19T21:19:03.762Z,4.85
2022-10-19T21:21:33.117Z,5.57
2022-10-19T21:24:04.631Z,4.68
2022-10-19T21:26:33.849Z,5.13
2022-10-19T21:29:01.167Z,4.70
2022-10-19T21:31:28.594Z,5.00
2022-10-19T21:33:55.137Z,4.72
2022-10-19T21:36:24.957Z,5.10
2022-10-19T21:38:51.692Z,4.80
2022-10-19T21:41:23.753Z,4.90
2022-10-19T21:43:57.473Z,4.82
2022-10-19T21:46:25.972Z,4.82
2022-10-19T21:48:54.235Z,5.03
2022-10-19T21:51:42.322Z,4.68
2022-10-19T21:54:15.209Z,4.32
2022-10-19T21:56:45.270Z,4.43
2022-10-19T21:59:12.497Z,4.50
2022-10-19T22:01:41.238Z,3.88
2022-10-19T22:04:11.919Z,4.63
2022-10-19T22:06:45.519Z,4.50
2022-10-19T22:09:30.349Z,4.60
2022-10-19T22:11:56.855Z,4.78
2022-10-19T22:14:23.271Z,4.55
2022-10-19T22:16:49.700Z,4.25
2022-10-19T22:19:16.181Z,4.30
2022-10-19T22:21:42.563Z,4.00
2022-10-19T22:24:13.459Z,4.45
2022-10-19T22:26:43.323Z,4.38
2022-10-19T22:29:09.740Z,4.15
2022-10-19T22:31:37.234Z,3.78
2022-10-19T22:34:06.301Z,3.85
2022-10-19T22:36:32.697Z,3.50
2022-10-19T22:38:59.109Z,3.75
2022-10-19T22:41:25.580Z,3.80
2022-10-19T22:43:53.083Z,3.40
2022-10-19T22:46:19.539Z,3.42
2022-10-19T22:48:45.958Z,3.38
2022-10-19T22:51:12.488Z,3.67
2022-10-19T22:53:44.108Z,3.20
2022-10-19T22:56:12.009Z,3.90
2022-10-19T22:58:39.155Z,3.95
2022-10-19T23:01:11.809Z,3.28
2022-10-19T23:03:41.154Z,3.40
2022-10-19T23:06:09.847Z,3.40
2022-10-19T23:08:36.953Z,3.58
2022-10-19T23:11:03.470Z,3.22
2022-10-19T23:13:29.995Z,3.15
2022-10-19T23:15:56.411Z,3.33
2022-10-19T23:18:25.486Z,3.20
2022-10-19T23:21:04.532Z,3.10
2022-10-19T23:23:32.463Z,3.30
2022-10-19T23:25:58.867Z,3.72
2022-10-19T23:28:25.906Z,3.60
2022-10-19T23:30:52.748Z,3.70
2022-10-19T23:33:19.229Z,3.67
2022-10-19T23:35:45.884Z,3.55
2022-10-19T23:38:12.359Z,3.80
2022-10-19T23:40:38.831Z,3.60
2022-10-19T23:43:05.246Z,3.30
2022-10-19T23:45:32.608Z,3.40
2022-10-19T23:47:58.990Z,3.17
2022-10-19T23:50:25.619Z,3.63
2022-10-19T23:52:52.225Z,3.30
2022-10-19T23:55:18.644Z,3.53
2022-10-19T23:57:45.084Z,3.50
